createdAt,value
2019-05-21T00:00:52.408Z,995.25
2019-05-21T00:01:52.398Z,995.26
2019-05-21T00:02:52.397Z,995.22
2019-05-21T00:03:52.373Z,995.21
2019-05-21T00:04:52.363Z,995.19
2019-05-21T00:05:57.378Z,995.27
2019-05-21T00:06:52.340Z,995.27
2019-05-21T00:07:52.347Z,995.29
2019-05-21T00:08:52.320Z,995.26
2019-05-21T00:09:52.305Z,995.30
2019-05-21T00:10:52.325Z,995.29
2019-05-21T00:11:52.283Z,995.21
2019-05-21T00:12:52.277Z,995.27
2019-05-21T00:13:52.293Z,995.28
2019-05-21T00:14:52.257Z,995.21
2019-05-21T00:15:52.249Z,995.20
2019-05-21T00:16:57.260Z,995.28
2019-05-21T00:17:52.219Z,995.28
2019-05-21T00:18:52.264Z,995.24
2019-05-21T00:19:52.196Z,995.21
2019-05-21T00:20:52.200Z,995.25
2019-05-21T00:21:52.177Z,995.23
2019-05-21T00:22:52.167Z,995.25
2019-05-21T00:23:52.173Z,995.26
2019-05-21T00:24:52.149Z,995.23
2019-05-21T00:25:52.145Z,995.23
2019-05-21T00:26:52.115Z,995.28
2019-05-21T00:27:57.121Z,995.26
2019-05-21T00:28:52.117Z,995.29
2019-05-21T00:29:52.084Z,995.28
2019-05-21T00:30:52.066Z,995.19
2019-05-21T00:31:52.053Z,995.17
2019-05-21T00:32:52.051Z,995.28
2019-05-21T00:33:52.066Z,995.23
2019-05-21T00:34:52.044Z,995.17
2019-05-21T00:35:52.035Z,995.25
2019-05-21T00:36:52.166Z,995.21
2019-05-21T00:37:51.989Z,995.25
2019-05-21T00:38:57.033Z,995.19
2019-05-21T00:39:51.961Z,995.24
2019-05-21T00:40:51.953Z,995.21
2019-05-21T00:41:51.941Z,995.23
2019-05-21T00:42:51.929Z,995.20
2019-05-21T00:43:51.919Z,995.24
2019-05-21T00:44:51.936Z,995.25
2019-05-21T00:45:51.897Z,995.25
2019-05-21T00:46:51.885Z,995.26
2019-05-21T00:47:51.870Z,995.33
2019-05-21T00:48:51.860Z,995.28
2019-05-21T00:49:56.914Z,995.34
2019-05-21T00:50:51.852Z,995.30
2019-05-21T00:52:06.156Z,995.26
2019-05-21T00:52:52.817Z,995.26
2019-05-21T00:53:51.819Z,995.31
2019-05-21T00:54:51.870Z,995.30
2019-05-21T00:55:51.785Z,995.29
2019-05-21T00:56:51.773Z,995.24
2019-05-21T00:57:51.762Z,995.27
2019-05-21T00:58:51.789Z,995.23
2019-05-21T00:59:51.751Z,995.24
2019-05-21T01:00:56.745Z,995.20
2019-05-21T01:01:51.714Z,995.23
2019-05-21T01:02:51.758Z,995.26
2019-05-21T01:03:51.690Z,995.29
2019-05-21T01:05:00.433Z,995.26
2019-05-21T01:05:52.680Z,995.33
2019-05-21T01:06:51.660Z,995.31
2019-05-21T01:07:51.645Z,995.29
2019-05-21T01:08:51.632Z,995.37
2019-05-21T01:09:51.636Z,995.35
2019-05-21T01:10:51.625Z,995.41
2019-05-21T01:11:56.624Z,995.38
2019-05-21T01:12:51.597Z,995.52
2019-05-21T01:13:51.574Z,995.48
2019-05-21T01:14:51.578Z,995.42
2019-05-21T01:15:51.552Z,995.42
2019-05-21T01:16:51.573Z,995.38
2019-05-21T01:17:51.530Z,995.37
2019-05-21T01:18:51.525Z,995.43
2019-05-21T01:19:51.518Z,995.42
2019-05-21T01:20:51.498Z,995.36
2019-05-21T01:21:51.523Z,995.38
2019-05-21T01:22:56.512Z,995.37
2019-05-21T01:23:51.465Z,995.40
2019-05-21T01:24:51.507Z,995.33
2019-05-21T01:25:51.476Z,995.40
2019-05-21T01:26:51.434Z,995.38
2019-05-21T01:27:51.428Z,995.38
2019-05-21T01:28:51.412Z,995.34
2019-05-21T01:29:51.408Z,995.36
2019-05-21T01:30:51.405Z,995.36
2019-05-21T01:31:51.370Z,995.32
2019-05-21T01:32:51.375Z,995.33
2019-05-21T01:33:56.388Z,995.33
2019-05-21T01:34:51.368Z,995.37
2019-05-21T01:35:51.339Z,995.36
2019-05-21T01:36:51.437Z,995.38
2019-05-21T01:37:51.301Z,995.35
2019-05-21T01:38:51.297Z,995.37
2019-05-21T01:39:51.281Z,995.37
2019-05-21T01:40:51.585Z,995.33
2019-05-21T01:41:51.314Z,995.31
2019-05-21T01:42:51.289Z,995.39
2019-05-21T01:43:51.233Z,995.39
2019-05-21T01:44:56.251Z,995.38
2019-05-21T01:45:51.249Z,995.35
2019-05-21T01:46:51.210Z,995.42
2019-05-21T01:47:51.200Z,995.38
2019-05-21T01:48:51.176Z,995.29
2019-05-21T01:49:51.165Z,995.34
2019-05-21T01:50:51.182Z,995.29
2019-05-21T01:51:51.145Z,995.37
2019-05-21T01:52:51.172Z,995.29
2019-05-21T01:53:51.126Z,995.33
2019-05-21T01:54:51.128Z,995.36
2019-05-21T01:55:56.134Z,995.27
2019-05-21T01:56:51.106Z,995.31
2019-05-21T01:57:51.095Z,995.34
2019-05-21T01:58:51.064Z,995.33
2019-05-21T01:59:51.052Z,995.34
2019-05-21T02:00:51.069Z,995.28
2019-05-21T02:01:51.035Z,995.33
2019-05-21T02:02:51.022Z,995.31
2019-05-21T02:03:51.116Z,995.36
2019-05-21T02:04:51.026Z,995.24
2019-05-21T02:05:51.009Z,995.25
2019-05-21T02:06:55.993Z,995.22
2019-05-21T02:07:50.997Z,995.26
2019-05-21T02:08:50.954Z,995.21
2019-05-21T02:09:50.969Z,995.25
2019-05-21T02:10:50.971Z,995.20
2019-05-21T02:11:50.922Z,995.25
2019-05-21T02:12:50.902Z,995.24
2019-05-21T02:13:50.895Z,995.22
2019-05-21T02:14:50.891Z,995.21
2019-05-21T02:15:50.890Z,995.18
2019-05-21T02:16:50.858Z,995.24
2019-05-21T02:17:55.870Z,995.19
2019-05-21T02:18:50.847Z,995.29
2019-05-21T02:19:50.824Z,995.22
2019-05-21T02:20:50.849Z,995.24
2019-05-21T02:21:50.805Z,995.25
2019-05-21T02:22:50.791Z,995.23
2019-05-21T02:23:50.782Z,995.24
2019-05-21T02:24:50.768Z,995.30
2019-05-21T02:25:50.775Z,995.23
2019-05-21T02:26:50.762Z,995.23
2019-05-21T02:27:50.800Z,995.26
2019-05-21T02:28:55.745Z,995.21
2019-05-21T02:29:50.725Z,995.24
2019-05-21T02:30:50.700Z,995.25
2019-05-21T02:31:50.702Z,995.22
2019-05-21T02:32:50.736Z,995.27
2019-05-21T02:33:50.666Z,995.27
2019-05-21T02:34:50.656Z,995.22
2019-05-21T02:35:54.708Z,995.18
2019-05-21T02:36:50.645Z,995.21
2019-05-21T02:37:50.623Z,995.23
2019-05-21T02:38:50.612Z,995.17
2019-05-21T02:39:55.618Z,995.27
2019-05-21T02:40:50.610Z,995.25
2019-05-21T02:41:50.592Z,995.18
2019-05-21T02:42:50.571Z,995.21
2019-05-21T02:43:50.552Z,995.24
2019-05-21T02:44:53.933Z,995.25
2019-05-21T02:45:50.530Z,995.17
2019-05-21T02:46:50.528Z,995.22
2019-05-21T02:47:50.506Z,995.13
2019-05-21T02:48:50.495Z,995.18
2019-05-21T02:49:50.484Z,995.18
2019-05-21T02:50:55.505Z,995.16
2019-05-21T02:51:50.477Z,995.21
2019-05-21T02:52:50.465Z,995.19
2019-05-21T02:53:50.441Z,995.14
2019-05-21T02:54:50.425Z,995.12
2019-05-21T02:55:50.417Z,995.12
2019-05-21T02:56:50.471Z,995.17
2019-05-21T02:57:50.406Z,995.19
2019-05-21T02:58:50.378Z,995.21
2019-05-21T02:59:50.377Z,995.18
2019-05-21T03:00:50.363Z,995.16
2019-05-21T03:01:55.377Z,995.17
2019-05-21T03:02:50.340Z,995.23
2019-05-21T03:03:50.333Z,995.17
2019-05-21T03:04:50.313Z,995.17
2019-05-21T03:05:50.301Z,995.14
2019-05-21T03:06:50.303Z,995.21
2019-05-21T03:07:50.278Z,995.18
2019-05-21T03:08:50.265Z,995.18
2019-05-21T03:09:50.264Z,995.23
2019-05-21T03:10:50.249Z,995.21
2019-05-21T03:11:50.252Z,995.20
2019-05-21T03:12:55.242Z,995.19
2019-05-21T03:13:50.209Z,995.20
2019-05-21T03:14:50.205Z,995.12
2019-05-21T03:15:50.188Z,995.15
2019-05-21T03:16:50.186Z,995.16
2019-05-21T03:17:50.212Z,995.19
2019-05-21T03:18:50.152Z,995.15
2019-05-21T03:19:50.158Z,995.20
2019-05-21T03:20:50.133Z,995.19
2019-05-21T03:21:50.131Z,995.21
2019-05-21T03:22:50.109Z,995.22
2019-05-21T03:23:55.115Z,995.19
2019-05-21T03:24:50.093Z,995.28
2019-05-21T03:25:50.103Z,995.24
2019-05-21T03:26:50.079Z,995.23
2019-05-21T03:27:50.073Z,995.15
2019-05-21T03:28:50.045Z,995.27
2019-05-21T03:29:50.027Z,995.22
2019-05-21T03:30:50.055Z,995.22
2019-05-21T03:31:50.070Z,995.17
2019-05-21T03:32:50.018Z,995.31
2019-05-21T03:33:50.043Z,995.24
2019-05-21T03:34:54.993Z,995.26
2019-05-21T03:35:49.991Z,995.23
2019-05-21T03:36:49.951Z,995.14
2019-05-21T03:37:49.997Z,995.26
2019-05-21T03:38:49.925Z,995.28
2019-05-21T03:39:49.964Z,995.20
2019-05-21T03:40:49.929Z,995.27
2019-05-21T03:41:49.888Z,995.20
2019-05-21T03:42:49.890Z,995.28
2019-05-21T03:43:49.867Z,995.24
2019-05-21T03:44:59.802Z,995.28
2019-05-21T03:45:55.865Z,995.31
2019-05-21T03:46:49.832Z,995.34
2019-05-21T03:47:49.838Z,995.32
2019-05-21T03:48:49.811Z,995.31
2019-05-21T03:49:49.800Z,995.44
2019-05-21T03:50:49.787Z,995.55
2019-05-21T03:51:49.783Z,995.51
2019-05-21T03:52:49.776Z,995.54
2019-05-21T03:53:49.752Z,995.49
2019-05-21T03:54:49.753Z,995.58
2019-05-21T03:55:49.758Z,995.59
2019-05-21T03:56:54.765Z,995.59
2019-05-21T03:57:49.718Z,995.61
2019-05-21T03:58:49.698Z,995.69
2019-05-21T03:59:49.713Z,995.67
2019-05-21T04:00:49.779Z,995.66
2019-05-21T04:01:49.666Z,995.75
2019-05-21T04:02:49.665Z,995.75
2019-05-21T04:03:49.644Z,995.78
2019-05-21T04:04:49.630Z,995.80
2019-05-21T04:05:49.618Z,995.77
2019-05-21T04:06:52.421Z,995.73
2019-05-21T04:07:54.645Z,995.82
2019-05-21T04:08:49.581Z,995.78
2019-05-21T04:09:49.594Z,995.84
2019-05-21T04:10:49.572Z,995.76
2019-05-21T04:11:53.088Z,995.71
2019-05-21T04:12:49.546Z,995.67
2019-05-21T04:13:49.529Z,995.71
2019-05-21T04:14:49.513Z,995.75
2019-05-21T04:15:49.507Z,995.74
2019-05-21T04:16:49.491Z,995.69
2019-05-21T04:17:49.495Z,995.68
2019-05-21T04:18:54.550Z,995.66
2019-05-21T04:19:49.465Z,995.69
2019-05-21T04:20:49.465Z,995.69
2019-05-21T04:21:49.440Z,995.62
2019-05-21T04:22:49.446Z,995.65
2019-05-21T04:23:49.415Z,995.66
2019-05-21T04:24:49.416Z,995.59
2019-05-21T04:25:49.407Z,995.60
2019-05-21T04:26:49.384Z,995.60
2019-05-21T04:27:49.376Z,995.53
2019-05-21T04:28:49.382Z,995.49
2019-05-21T04:29:54.371Z,995.41
2019-05-21T04:30:49.335Z,995.35
2019-05-21T04:31:49.326Z,995.32
2019-05-21T04:32:49.317Z,995.34
2019-05-21T04:33:49.318Z,995.32
2019-05-21T04:34:49.293Z,995.31
2019-05-21T04:35:49.293Z,995.25
2019-05-21T04:36:49.273Z,995.13
2019-05-21T04:37:49.263Z,995.08
2019-05-21T04:38:49.273Z,995.09
2019-05-21T04:39:49.242Z,995.07
2019-05-21T04:40:54.250Z,995.13
2019-05-21T04:41:49.223Z,995.15
2019-05-21T04:42:49.210Z,995.10
2019-05-21T04:43:49.216Z,995.11
2019-05-21T04:44:49.185Z,995.08
2019-05-21T04:45:49.172Z,995.09
2019-05-21T04:46:49.163Z,995.08
2019-05-21T04:47:49.153Z,995.10
2019-05-21T04:48:49.155Z,995.11
2019-05-21T04:49:49.130Z,995.04
2019-05-21T04:50:49.125Z,994.99
2019-05-21T04:51:54.130Z,994.99
2019-05-21T04:52:49.108Z,994.97
2019-05-21T04:53:49.103Z,995.07
2019-05-21T04:54:49.083Z,995.05
2019-05-21T04:55:49.070Z,995.12
2019-05-21T04:56:49.053Z,995.24
2019-05-21T04:57:49.050Z,995.23
2019-05-21T04:58:49.069Z,995.33
2019-05-21T04:59:49.056Z,995.37
2019-05-21T05:00:49.029Z,995.50
2019-05-21T05:01:49.013Z,995.49
2019-05-21T05:02:54.018Z,995.42
2019-05-21T05:03:48.994Z,995.46
2019-05-21T05:04:48.993Z,995.49
2019-05-21T05:05:48.952Z,995.59
2019-05-21T05:06:48.945Z,995.65
2019-05-21T05:07:48.937Z,995.58
2019-05-21T05:08:48.933Z,995.55
2019-05-21T05:09:48.910Z,995.55
2019-05-21T05:10:49.509Z,995.54
2019-05-21T05:11:48.888Z,995.50
2019-05-21T05:12:48.883Z,995.58
2019-05-21T05:13:53.904Z,995.71
2019-05-21T05:14:48.855Z,995.67
2019-05-21T05:15:48.846Z,995.61
2019-05-21T05:16:48.838Z,995.53
2019-05-21T05:17:48.862Z,995.52
2019-05-21T05:18:48.836Z,995.50
2019-05-21T05:19:48.807Z,995.52
2019-05-21T05:20:48.788Z,995.48
2019-05-21T05:21:48.782Z,995.52
2019-05-21T05:22:48.778Z,995.52
2019-05-21T05:23:48.762Z,995.49
2019-05-21T05:24:53.848Z,995.53
2019-05-21T05:25:48.739Z,995.63
2019-05-21T05:26:48.724Z,995.66
2019-05-21T05:27:48.716Z,995.62
2019-05-21T05:28:48.702Z,995.63
2019-05-21T05:29:48.704Z,995.69
2019-05-21T05:30:48.680Z,995.65
2019-05-21T05:31:48.671Z,995.75
2019-05-21T05:32:48.658Z,995.81
2019-05-21T05:33:48.646Z,995.78
2019-05-21T05:34:48.651Z,995.77
2019-05-21T05:35:53.651Z,995.82
2019-05-21T05:36:48.613Z,995.70
2019-05-21T05:37:49.213Z,995.72
2019-05-21T05:38:48.593Z,995.71
2019-05-21T05:39:48.594Z,995.71
2019-05-21T05:40:48.569Z,995.69
2019-05-21T05:41:48.563Z,995.72
2019-05-21T05:42:48.551Z,995.70
2019-05-21T05:43:48.575Z,995.79
2019-05-21T05:44:48.542Z,995.81
2019-05-21T05:45:48.518Z,995.84
2019-05-21T05:46:53.533Z,995.74
2019-05-21T05:47:48.494Z,995.70
2019-05-21T05:48:48.490Z,995.75
2019-05-21T05:49:48.485Z,995.76
2019-05-21T05:50:48.460Z,995.75
2019-05-21T05:51:48.453Z,995.80
2019-05-21T05:52:48.443Z,995.79
2019-05-21T05:53:48.427Z,995.76
2019-05-21T05:54:48.559Z,995.81
2019-05-21T05:55:48.445Z,995.81
2019-05-21T05:56:48.426Z,995.80
2019-05-21T05:57:53.436Z,995.85
2019-05-21T05:58:48.382Z,995.80
2019-05-21T05:59:48.399Z,995.83
2019-05-21T06:00:48.742Z,995.86
2019-05-21T06:01:48.442Z,995.86
2019-05-21T06:02:48.328Z,995.82
2019-05-21T06:03:48.317Z,995.83
2019-05-21T06:04:48.380Z,995.86
2019-05-21T06:05:48.294Z,995.89
2019-05-21T06:06:48.300Z,995.88
2019-05-21T06:07:59.348Z,995.88
2019-05-21T06:08:54.494Z,995.90
2019-05-21T06:09:48.264Z,995.85
2019-05-21T06:10:48.247Z,995.93
2019-05-21T06:11:48.228Z,995.90
2019-05-21T06:12:48.253Z,995.84
2019-05-21T06:13:48.205Z,995.89
2019-05-21T06:14:48.254Z,995.89
2019-05-21T06:15:48.184Z,995.85
2019-05-21T06:16:48.321Z,995.90
2019-05-21T06:17:48.258Z,995.90
2019-05-21T06:18:48.182Z,995.82
2019-05-21T06:19:53.255Z,995.84
2019-05-21T06:20:48.133Z,995.85
2019-05-21T06:21:48.117Z,995.85
2019-05-21T06:22:48.106Z,995.91
2019-05-21T06:23:48.097Z,995.92
2019-05-21T06:24:48.102Z,995.87
2019-05-21T06:25:48.104Z,995.87
2019-05-21T06:26:48.064Z,995.90
2019-05-21T06:27:48.057Z,995.81
2019-05-21T06:28:48.040Z,995.79
2019-05-21T06:29:48.028Z,995.81
2019-05-21T06:30:53.051Z,995.75
2019-05-21T06:31:48.143Z,995.68
2019-05-21T06:32:48.060Z,995.73
2019-05-21T06:33:47.983Z,995.71
2019-05-21T06:34:48.779Z,995.69
2019-05-21T06:35:48.135Z,995.75
2019-05-21T06:36:47.952Z,995.71
2019-05-21T06:37:47.941Z,995.77
2019-05-21T06:38:47.926Z,995.81
2019-05-21T06:39:47.916Z,995.83
2019-05-21T06:40:47.921Z,995.79
2019-05-21T06:41:52.916Z,995.81
2019-05-21T06:42:47.882Z,995.82
2019-05-21T06:43:47.872Z,995.85
2019-05-21T06:44:47.860Z,995.86
2019-05-21T06:45:47.869Z,995.80
2019-05-21T06:46:47.941Z,995.91
2019-05-21T06:47:47.917Z,996.00
2019-05-21T06:48:47.854Z,995.94
2019-05-21T06:49:47.805Z,995.97
2019-05-21T06:50:47.807Z,995.87
2019-05-21T06:51:47.784Z,995.84
2019-05-21T06:52:52.798Z,995.88
2019-05-21T06:53:47.772Z,995.87
2019-05-21T06:54:47.753Z,995.85
2019-05-21T06:55:47.755Z,995.84
2019-05-21T06:56:47.733Z,995.89
2019-05-21T06:57:47.717Z,995.76
2019-05-21T06:58:48.678Z,995.82
2019-05-21T06:59:47.696Z,995.86
2019-05-21T07:00:47.697Z,995.89
2019-05-21T07:01:47.674Z,995.92
2019-05-21T07:02:47.683Z,995.97
2019-05-21T07:03:52.703Z,995.97
2019-05-21T07:04:47.641Z,996.02
2019-05-21T07:05:58.444Z,996.03
2019-05-21T07:06:48.619Z,996.04
2019-05-21T07:07:47.655Z,996.10
2019-05-21T07:08:47.597Z,996.08
2019-05-21T07:09:47.586Z,996.12
2019-05-21T07:10:47.583Z,996.11
2019-05-21T07:11:47.596Z,996.09
2019-05-21T07:12:47.634Z,995.97
2019-05-21T07:13:47.542Z,995.94
2019-05-21T07:14:52.553Z,995.90
2019-05-21T07:15:47.526Z,996.01
2019-05-21T07:16:47.528Z,996.01
2019-05-21T07:17:47.496Z,996.02
2019-05-21T07:18:47.664Z,996.03
2019-05-21T07:19:47.479Z,995.96
2019-05-21T07:20:47.463Z,995.97
2019-05-21T07:21:47.638Z,996.00
2019-05-21T07:22:47.578Z,996.01
2019-05-21T07:23:47.432Z,995.99
2019-05-21T07:24:47.421Z,996.05
2019-05-21T07:25:52.432Z,996.11
2019-05-21T07:26:47.410Z,996.10
2019-05-21T07:27:47.476Z,996.12
2019-05-21T07:28:47.455Z,996.11
2019-05-21T07:29:47.390Z,996.10
2019-05-21T07:30:47.369Z,996.06
2019-05-21T07:31:47.379Z,996.14
2019-05-21T07:32:47.337Z,996.12
2019-05-21T07:33:47.323Z,996.18
2019-05-21T07:34:47.311Z,996.14
2019-05-21T07:35:47.311Z,996.11
2019-05-21T07:36:52.317Z,996.21
2019-05-21T07:37:47.379Z,996.12
2019-05-21T07:38:53.358Z,996.17
2019-05-21T07:39:48.286Z,996.19
2019-05-21T07:40:47.249Z,996.20
2019-05-21T07:41:47.248Z,996.21
2019-05-21T07:42:47.221Z,996.26
2019-05-21T07:43:47.252Z,996.30
2019-05-21T07:44:47.200Z,996.31
2019-05-21T07:45:47.201Z,996.35
2019-05-21T07:46:47.199Z,996.30
2019-05-21T07:47:52.201Z,996.28
2019-05-21T07:48:47.156Z,996.32
2019-05-21T07:49:47.152Z,996.31
2019-05-21T07:50:47.132Z,996.32
2019-05-21T07:51:47.133Z,996.34
2019-05-21T07:52:47.115Z,996.25
2019-05-21T07:53:47.098Z,996.23
2019-05-21T07:54:47.089Z,996.30
2019-05-21T07:55:47.212Z,996.34
2019-05-21T07:56:47.077Z,996.40
2019-05-21T07:57:47.093Z,996.43
2019-05-21T07:58:52.107Z,996.38
2019-05-21T07:59:47.041Z,996.31
2019-05-21T08:00:47.021Z,996.38
2019-05-21T08:01:47.018Z,996.44
2019-05-21T08:02:47.001Z,996.35
2019-05-21T08:03:46.997Z,996.33
2019-05-21T08:04:47.067Z,996.39
2019-05-21T08:05:46.989Z,996.38
2019-05-21T08:06:46.973Z,996.37
2019-05-21T08:07:46.959Z,996.41
2019-05-21T08:08:46.933Z,996.34
2019-05-21T08:09:51.952Z,996.39
2019-05-21T08:10:46.953Z,996.39
2019-05-21T08:11:47.428Z,996.54
2019-05-21T08:12:46.915Z,996.47
2019-05-21T08:13:46.912Z,996.45
2019-05-21T08:14:46.878Z,996.45
2019-05-21T08:15:46.865Z,996.53
2019-05-21T08:16:46.848Z,996.51
2019-05-21T08:17:46.841Z,996.49
2019-05-21T08:18:46.820Z,996.54
2019-05-21T08:19:46.878Z,996.55
2019-05-21T08:20:51.820Z,996.58
2019-05-21T08:21:46.852Z,996.59
2019-05-21T08:22:46.815Z,996.61
2019-05-21T08:23:46.781Z,996.64
2019-05-21T08:24:46.765Z,996.71
2019-05-21T08:25:46.747Z,996.72
2019-05-21T08:26:46.740Z,996.69
2019-05-21T08:27:46.733Z,996.66
2019-05-21T08:28:46.708Z,996.69
2019-05-21T08:29:46.699Z,996.70
2019-05-21T08:30:46.699Z,996.70
2019-05-21T08:31:51.701Z,996.67
2019-05-21T08:32:46.678Z,996.71
2019-05-21T08:33:46.693Z,996.72
2019-05-21T08:34:46.656Z,996.72
2019-05-21T08:35:46.659Z,996.85
2019-05-21T08:36:46.625Z,996.86
2019-05-21T08:37:46.625Z,996.91
2019-05-21T08:38:46.601Z,996.84
2019-05-21T08:39:46.600Z,996.93
2019-05-21T08:40:46.591Z,996.83
2019-05-21T08:41:46.656Z,996.88
2019-05-21T08:42:51.586Z,996.84
2019-05-21T08:43:46.546Z,996.92
2019-05-21T08:44:46.534Z,996.79
2019-05-21T08:45:46.572Z,996.91
2019-05-21T08:46:46.566Z,997.04
2019-05-21T08:47:46.496Z,997.11
2019-05-21T08:48:46.498Z,997.10
2019-05-21T08:49:46.486Z,997.05
2019-05-21T08:50:46.464Z,997.02
2019-05-21T08:51:46.454Z,997.05
2019-05-21T08:52:46.440Z,997.09
2019-05-21T08:53:51.475Z,997.09
2019-05-21T08:54:46.419Z,997.15
2019-05-21T08:55:46.426Z,997.19
2019-05-21T08:56:46.399Z,997.17
2019-05-21T08:58:05.001Z,997.16
2019-05-21T08:58:47.386Z,997.15
2019-05-21T08:59:46.362Z,997.20
2019-05-21T09:00:46.360Z,997.24
2019-05-21T09:01:46.351Z,997.26
2019-05-21T09:02:46.332Z,997.33
2019-05-21T09:03:46.332Z,997.37
2019-05-21T09:04:51.330Z,997.29
2019-05-21T09:05:46.304Z,997.36
2019-05-21T09:06:46.288Z,997.37
2019-05-21T09:07:52.346Z,997.29
2019-05-21T09:08:47.272Z,997.34
2019-05-21T09:09:50.464Z,997.26
2019-05-21T09:10:46.242Z,997.21
2019-05-21T09:11:46.244Z,997.26
2019-05-21T09:12:46.228Z,997.28
2019-05-21T09:13:46.259Z,997.27
2019-05-21T09:14:46.203Z,997.26
2019-05-21T09:15:51.219Z,997.37
2019-05-21T09:16:46.177Z,997.37
2019-05-21T09:17:46.164Z,997.32
2019-05-21T09:18:46.185Z,997.38
2019-05-21T09:19:46.147Z,997.35
2019-05-21T09:20:46.133Z,997.36
2019-05-21T09:21:46.124Z,997.46
2019-05-21T09:22:46.112Z,997.47
2019-05-21T09:23:46.100Z,997.49
2019-05-21T09:24:46.101Z,997.48
2019-05-21T09:25:49.442Z,997.56
2019-05-21T09:26:51.146Z,997.61
2019-05-21T09:27:46.057Z,997.62
2019-05-21T09:28:46.043Z,997.51
2019-05-21T09:29:46.067Z,997.45
2019-05-21T09:30:46.031Z,997.48
2019-05-21T09:31:46.066Z,997.47
2019-05-21T09:32:46.009Z,997.45
2019-05-21T09:33:45.989Z,997.54
2019-05-21T09:34:49.283Z,997.55
2019-05-21T09:35:45.967Z,997.58
2019-05-21T09:36:45.961Z,997.59
2019-05-21T09:37:50.998Z,997.57
2019-05-21T09:38:45.955Z,997.55
2019-05-21T09:39:45.982Z,997.60
2019-05-21T09:40:45.973Z,997.56
2019-05-21T09:41:45.905Z,997.69
2019-05-21T09:42:45.932Z,997.64
2019-05-21T09:43:45.882Z,997.72
2019-05-21T09:44:45.881Z,997.72
2019-05-21T09:45:45.898Z,997.66
2019-05-21T09:46:45.854Z,997.64
2019-05-21T09:47:45.842Z,997.74
2019-05-21T09:48:50.857Z,997.70
2019-05-21T09:49:45.822Z,997.65
2019-05-21T09:50:45.825Z,997.70
2019-05-21T09:51:45.793Z,997.73
2019-05-21T09:52:45.782Z,997.73
2019-05-21T09:53:45.783Z,997.74
2019-05-21T09:54:45.775Z,997.70
2019-05-21T09:55:45.748Z,997.72
2019-05-21T09:56:45.743Z,997.79
2019-05-21T09:57:45.726Z,997.83
2019-05-21T09:58:45.714Z,997.78
2019-05-21T09:59:50.736Z,997.80
2019-05-21T10:00:45.741Z,997.81
2019-05-21T10:01:48.015Z,997.80
2019-05-21T10:02:45.693Z,997.80
2019-05-21T10:03:45.816Z,997.82
2019-05-21T10:04:45.672Z,997.87
2019-05-21T10:05:45.646Z,997.96
2019-05-21T10:06:45.627Z,997.88
2019-05-21T10:07:45.618Z,997.95
2019-05-21T10:08:45.608Z,997.89
2019-05-21T10:09:45.617Z,997.97
2019-05-21T10:10:50.685Z,997.95
2019-05-21T10:11:45.628Z,997.97
2019-05-21T10:12:45.569Z,997.91
2019-05-21T10:13:45.555Z,998.01
2019-05-21T10:14:45.539Z,998.02
2019-05-21T10:15:45.540Z,997.98
2019-05-21T10:16:45.523Z,997.99
2019-05-21T10:17:45.527Z,998.01
2019-05-21T10:18:45.505Z,998.09
2019-05-21T10:19:45.492Z,998.02
2019-05-21T10:20:45.483Z,998.12
2019-05-21T10:21:50.486Z,998.04
2019-05-21T10:22:45.453Z,998.10
2019-05-21T10:23:45.442Z,998.09
2019-05-21T10:24:45.430Z,998.10
2019-05-21T10:25:45.488Z,998.10
2019-05-21T10:26:45.411Z,998.18
2019-05-21T10:27:45.399Z,998.15
2019-05-21T10:28:45.387Z,998.15
2019-05-21T10:29:45.457Z,998.20
2019-05-21T10:30:45.426Z,998.18
2019-05-21T10:31:45.356Z,998.18
2019-05-21T10:32:50.366Z,998.20
2019-05-21T10:33:45.336Z,998.18
2019-05-21T10:34:45.324Z,998.25
2019-05-21T10:35:45.332Z,998.25
2019-05-21T10:36:45.300Z,998.31
2019-05-21T10:37:54.382Z,998.26
2019-05-21T10:38:46.276Z,998.33
2019-05-21T10:39:45.268Z,998.34
2019-05-21T10:40:45.262Z,998.31
2019-05-21T10:41:46.201Z,998.33
2019-05-21T10:42:45.237Z,998.37
2019-05-21T10:43:50.309Z,998.34
2019-05-21T10:44:45.216Z,998.32
2019-05-21T10:45:45.200Z,998.42
2019-05-21T10:46:45.203Z,998.36
2019-05-21T10:47:45.182Z,998.40
2019-05-21T10:48:45.178Z,998.42
2019-05-21T10:49:45.162Z,998.45
2019-05-21T10:50:45.246Z,998.43
2019-05-21T10:51:45.147Z,998.41
2019-05-21T10:52:45.133Z,998.48
2019-05-21T10:53:45.118Z,998.42
2019-05-21T10:54:50.132Z,998.36
2019-05-21T10:55:45.092Z,998.35
2019-05-21T10:56:48.353Z,998.41
2019-05-21T10:57:45.075Z,998.46
2019-05-21T10:58:45.061Z,998.48
2019-05-21T10:59:45.050Z,998.42
2019-05-21T11:00:45.038Z,998.56
2019-05-21T11:01:45.038Z,998.40
2019-05-21T11:02:45.013Z,998.38
2019-05-21T11:03:45.005Z,998.42
2019-05-21T11:04:45.086Z,998.51
2019-05-21T11:05:50.008Z,998.51
2019-05-21T11:06:44.990Z,998.43
2019-05-21T11:07:44.964Z,998.44
2019-05-21T11:08:44.950Z,998.52
2019-05-21T11:09:44.941Z,998.58
2019-05-21T11:10:44.933Z,998.64
2019-05-21T11:11:44.952Z,998.59
2019-05-21T11:12:44.908Z,998.60
2019-05-21T11:13:44.897Z,998.65
2019-05-21T11:14:44.884Z,998.55
2019-05-21T11:15:44.874Z,998.68
2019-05-21T11:16:49.898Z,998.74
2019-05-21T11:17:53.590Z,998.67
2019-05-21T11:18:45.842Z,998.77
2019-05-21T11:19:44.837Z,998.72
2019-05-21T11:20:44.818Z,998.71
2019-05-21T11:21:44.811Z,998.73
2019-05-21T11:22:44.808Z,998.87
2019-05-21T11:23:44.793Z,998.85
2019-05-21T11:24:44.778Z,998.81
2019-05-21T11:25:44.764Z,998.87
2019-05-21T11:26:44.749Z,998.79
2019-05-21T11:27:49.774Z,998.84
2019-05-21T11:28:44.728Z,998.86
2019-05-21T11:29:44.720Z,998.93
2019-05-21T11:30:44.717Z,998.99
2019-05-21T11:31:56.556Z,998.98
2019-05-21T11:32:47.924Z,998.97
2019-05-21T11:33:44.672Z,998.90
2019-05-21T11:34:44.666Z,998.98
2019-05-21T11:35:44.678Z,998.92
2019-05-21T11:36:44.641Z,998.96
2019-05-21T11:37:47.848Z,999.01
2019-05-21T11:38:49.640Z,999.01
2019-05-21T11:39:44.608Z,998.99
2019-05-21T11:40:50.571Z,999.08
2019-05-21T11:41:45.585Z,999.07
2019-05-21T11:42:44.589Z,999.02
2019-05-21T11:43:44.564Z,999.06
2019-05-21T11:44:44.552Z,999.18
2019-05-21T11:45:44.548Z,999.07
2019-05-21T11:46:44.531Z,999.10
2019-05-21T11:47:44.639Z,999.15
2019-05-21T11:48:44.509Z,999.11
2019-05-21T11:49:49.524Z,999.15
2019-05-21T11:50:44.487Z,999.18
2019-05-21T11:51:44.476Z,999.21
2019-05-21T11:52:44.476Z,999.15
2019-05-21T11:53:44.453Z,999.20
2019-05-21T11:54:44.446Z,999.21
2019-05-21T11:55:44.433Z,999.21
2019-05-21T11:56:44.426Z,999.20
2019-05-21T11:57:44.430Z,999.20
2019-05-21T11:58:44.405Z,999.26
2019-05-21T11:59:44.392Z,999.31
2019-05-21T12:00:49.406Z,999.26
2019-05-21T12:01:44.405Z,999.31
2019-05-21T12:02:44.380Z,999.29
2019-05-21T12:03:44.366Z,999.35
2019-05-21T12:04:44.336Z,999.29
2019-05-21T12:05:44.324Z,999.30
2019-05-21T12:06:44.314Z,999.32
2019-05-21T12:07:44.305Z,999.32
2019-05-21T12:08:56.370Z,999.30
2019-05-21T12:09:45.291Z,999.34
2019-05-21T12:10:44.268Z,999.40
2019-05-21T12:11:49.284Z,999.40
2019-05-21T12:12:44.248Z,999.39
2019-05-21T12:13:44.250Z,999.37
2019-05-21T12:14:44.225Z,999.47
2019-05-21T12:15:44.216Z,999.46
2019-05-21T12:16:44.206Z,999.50
2019-05-21T12:17:44.190Z,999.51
2019-05-21T12:18:44.188Z,999.44
2019-05-21T12:19:44.167Z,999.50
2019-05-21T12:20:44.166Z,999.45
2019-05-21T12:21:44.152Z,999.48
2019-05-21T12:22:49.173Z,999.51
2019-05-21T12:23:44.249Z,999.60
2019-05-21T12:24:44.116Z,999.52
2019-05-21T12:25:44.107Z,999.59
2019-05-21T12:26:44.131Z,999.53
2019-05-21T12:27:44.089Z,999.54
2019-05-21T12:28:44.086Z,999.52